Pullman-Moscow Regional Airport Pullman-Moscow US
ICAO: KPUW
IATA: PUW
Category: Medium
Scheduled Services: Yes

Elevation: 2556 ft
TransAlt. 18000 ft.

Airport Communications:
ASOS:135.675
SEATTLE CNTR:123.95
SEATTLE RDO:122.6
CTAF/UNICOM:122.8

KPUW Zoom In..

If you have problems with the map follow the link
https://www.worldairports.se/pages/airport.php?
ICAO=KPUW

Runways:

(A) RW 06 length 6730 ft width 100 ft
---- / hdg 55

(B) RW 24 length 6730 ft width 100 ft
---- / hdg 235

Location; KPUW
Day. 14 / Time. 04.53 Zulu
* Altimeter: 29.93
* Temperature: 02° c. 35.6°f.
* Wind from: 000° Speed 00 kn.
Dewpoint: 01° c.
Visibility: 10 Statute Miles.
Clouds: Few 5000 ft.
Clouds: Overcast 8000 ft.

KPUW 140453Z AUTO 00000KT 10SM FEW050 OVC080 02/01 A2993 RMK AO2 RAB00E23 SLP153 P0000 T00220006


Wind - Calm.

 
 
jpsmedia worldairports.se 2019   terms of use